Latest Weather Observations for Townsville

IDQ60801

Issued at 2:02 pm EST Monday 25 September 2017 (issued every 30 minutes, with the page automatically refreshed every 10 minutes)

About weather observations | Map of weather stations | Latest weather observations for QLD | Other Formats
Station Details ID: 032040 Name: TOWNSVILLE AERO Lat: -19.25 Lon: 146.77 Height: 4.34 m
Data from the previous 72 hours. | See also: Recent months at Townsville
Date/Time
EST
Temp
°C
App
Temp
°C
Dew
Point
°C
Rel
Hum
%
Delta-T
°C
Wind Press
QNH
hPa
Press
MSL
hPa
Rain since
9am
mm
Dir  Spd
km/h
Gust
km/h
Spd
kts
Gust
kts
25/01:30pm 27.7 25.8 15.8 48 7.3 ENE 20 30 11 16 1014.3 1014.3 0.0
25/01:00pm 27.4 25.7 16.2 50 6.9 ENE 20 28 11 15 1014.7 1014.7 0.0
25/12:30pm 27.2 25.4 16.0 50 6.9 ENE 20 28 11 15 1015.1 1015.1 0.0
25/12:00pm 28.0 25.6 14.5 43 8.1 ENE 20 28 11 15 1015.5 1015.5 0.0
25/11:30am 27.0 24.7 14.7 47 7.4 ENE 20 26 11 14 1016.0 1016.0 0.0
25/11:00am 26.9 25.4 15.2 48 7.1 ENE 17 26 9 14 1016.5 1016.5 0.0
25/10:30am 26.4 24.6 15.5 51 6.6 ENE 19 26 10 14 1016.9 1016.9 0.0
25/10:00am 26.6 24.8 15.6 50 6.7 E 19 28 10 15 1017.1 1017.1 0.0
25/09:30am 25.8 23.9 15.2 52 6.4 NE 19 26 10 14 1017.2 1017.2 0.0
25/09:00am 25.8 25.1 16.5 56 5.7 NE 15 20 8 11 1017.3 1017.3 0.0
25/08:30am 25.3 25.6 17.1 60 5.1 ENE 11 15 6 8 1017.2 1017.2 0.0
25/08:00am 24.2 26.5 17.6 66 4.1 SE 2 7 1 4 1017.0 1017.0 0.0
25/07:30am 22.5 23.9 17.3 72 3.2 SSE 6 9 3 5 1016.6 1016.6 0.0
25/07:00am 18.4 20.6 16.6 89 1.1 CALM 0 0 0 0 1016.3 1016.3 0.0
25/06:43am 16.6 18.4 15.4 93 0.7 CALM 0 0 0 0 1016.1 1016.1 0.0
25/06:30am 16.4 18.2 15.5 94 0.5 CALM 0 6 0 3 1015.9 1015.9 0.0
25/06:00am 15.8 17.5 15.1 96 0.4 CALM 0 0 0 0 1015.7 1015.7 0.0
25/05:30am 16.3 18.1 15.4 94 0.5 CALM 0 0 0 0 1015.5 1015.5 0.0
25/05:00am 16.6 18.4 15.4 93 0.7 CALM 0 0 0 0 1015.2 1015.2 0.0
25/04:30am 16.8 17.2 15.3 91 0.9 S 7 7 4 4 1015.0 1015.0 0.0
25/04:00am 16.9 18.1 14.8 87 1.2 S 2 7 1 4 1014.8 1014.8 0.0
25/03:30am 19.1 19.9 16.4 84 1.6 S 7 7 4 4 1014.5 1014.5 0.0
25/03:00am 19.5 20.1 16.7 84 1.7 S 9 13 5 7 1014.5 1014.5 0.0
25/02:30am 19.4 20.3 16.7 84 1.6 S 7 9 4 5 1014.5 1014.5 0.0
25/02:00am 19.3 21.5 16.6 84 1.6 CALM 0 0 0 0 1014.6 1014.6 0.0
25/01:30am 19.1 21.4 16.8 86 1.4 CALM 0 0 0 0 1014.9 1014.9 0.0
25/01:00am 18.7 20.2 15.8 83 1.7 ESE 2 7 1 4 1015.1 1015.1 0.0
25/12:30am 20.2 21.3 17.1 82 1.9 ESE 7 7 4 4 1015.3 1015.3 0.0
25/12:00am 20.6 21.9 17.2 81 2.1 ESE 6 7 3 4 1015.4 1015.4 0.0
 
Date/Time
EST
Temp
°C
App
Temp
°C
Dew
Point
°C
Rel
Hum
%
Delta-T
°C
Wind Press
QNH
hPa
Press
MSL
hPa
Rain since
9am
mm
Dir  Spd
km/h
Gust
km/h
Spd
kts
Gust
kts
24/11:30pm 20.2 21.2 16.9 81 2.0 ESE 7 7 4 4 1015.5 1015.5 0.0
24/11:00pm 19.6 22.0 17.1 85 1.5 CALM 0 0 0 0 1015.5 1015.5 0.0
24/10:30pm 19.7 22.0 16.7 83 1.8 CALM 0 0 0 0 1015.5 1015.5 0.0
24/10:00pm 20.2 22.6 16.9 81 2.0 CALM 0 0 0 0 1015.5 1015.5 0.0
24/09:30pm 20.3 21.3 16.8 80 2.1 N 7 9 4 5 1015.5 1015.5 0.0
24/09:00pm 20.8 22.0 16.8 78 2.4 N 6 9 3 5 1015.5 1015.5 0.0
24/08:30pm 21.5 21.8 17.1 76 2.7 NNE 11 13 6 7 1015.2 1015.2 0.0
24/08:00pm 22.0 22.3 17.1 74 3.0 NE 11 11 6 6 1014.9 1014.9 0.0
24/07:30pm 22.0 22.3 17.1 74 3.0 NE 11 13 6 7 1014.6 1014.6 0.0
24/07:00pm 22.6 22.6 17.1 71 3.4 ENE 13 15 7 8 1014.3 1014.3 0.0
24/06:30pm 23.6 23.6 17.3 67 3.9 NE 13 17 7 9 1014.0 1014.0 0.0
24/06:00pm 24.2 23.9 17.3 65 4.3 NE 15 20 8 11 1013.9 1013.9 0.0
24/05:30pm 25.0 23.8 17.1 61 4.9 ENE 19 24 10 13 1013.8 1013.8 0.0
24/05:00pm 25.6 23.9 17.1 59 5.3 NE 22 28 12 15 1013.7 1013.7 0.0
24/04:30pm 25.8 23.6 16.9 58 5.5 ENE 24 30 13 16 1013.5 1013.5 0.0
24/04:00pm 26.4 24.4 17.3 57 5.7 NE 24 30 13 16 1013.6 1013.6 0.0
24/03:30pm 26.9 25.2 17.1 55 6.1 ENE 22 28 12 15 1013.6 1013.6 0.0
24/03:00pm 27.4 25.2 17.0 53 6.5 ENE 24 32 13 17 1013.9 1013.9 0.0
24/02:30pm 27.3 26.1 17.4 54 6.2 NE 20 26 11 14 1014.1 1014.1 0.0
24/02:00pm 27.3 25.4 16.7 52 6.6 ENE 22 28 12 15 1014.5 1014.5 0.0
24/01:30pm 27.5 25.7 16.9 52 6.6 ENE 22 30 12 16 1014.8 1014.8 0.0
24/01:00pm 27.0 25.3 16.3 52 6.6 ENE 20 30 11 16 1015.1 1015.1 0.0
24/12:30pm 27.8 25.5 15.7 47 7.4 ENE 22 33 12 18 1015.6 1015.6 0.0
24/12:00pm 27.1 25.3 16.0 50 6.8 ENE 20 28 11 15 1016.1 1016.1 0.0
24/11:30am 26.9 25.3 16.4 52 6.5 ENE 20 30 11 16 1016.5 1016.5 0.0
24/11:00am 26.8 25.1 16.2 52 6.5 ENE 20 28 11 15 1017.0 1017.0 0.0
24/10:30am 26.9 25.2 16.2 52 6.6 ENE 20 28 11 15 1017.3 1017.3 0.0
24/10:00am 26.8 25.3 16.8 54 6.2 ENE 20 28 11 15 1017.4 1017.4 0.0
24/09:30am 26.2 25.0 17.6 59 5.4 ENE 20 30 11 16 1017.3 1017.3 0.0
24/09:00am 26.1 24.5 16.5 55 5.9 ENE 20 28 11 15 1017.5 1017.5 0.0
24/08:30am 25.4 25.6 17.7 62 4.8 NE 13 19 7 10 1017.4 1017.4 0.0
24/08:00am 24.3 25.3 17.7 66 4.1 SE 9 13 5 7 1017.1 1017.1 0.0
24/07:30am 22.8 23.7 17.6 72 3.2 SSE 9 11 5 6 1016.8 1016.8 0.0
24/07:00am 20.3 22.5 17.4 83 1.8 S 2 7 1 4 1016.7 1016.7 0.0
24/06:30am 19.5 21.1 16.9 85 1.6 S 4 7 2 4 1016.3 1016.3 0.0
24/06:00am 20.2 21.0 17.2 83 1.8 S 9 9 5 5 1016.1 1016.1 0.0
24/05:30am 20.7 21.8 17.1 80 2.2 S 7 9 4 5 1015.9 1015.9 0.0
24/05:00am 21.0 22.2 17.4 80 2.2 S 7 9 4 5 1015.7 1015.7 0.0
24/04:30am 21.1 21.9 17.2 78 2.4 S 9 11 5 6 1015.5 1015.5 0.0
24/04:00am 21.3 23.2 17.6 79 2.3 SSW 4 7 2 4 1015.3 1015.3 0.0
24/03:30am 21.2 23.8 17.5 79 2.3 CALM 0 0 0 0 1015.2 1015.2 0.0
24/03:00am 21.5 24.1 17.6 78 2.4 CALM 0 0 0 0 1015.2 1015.2 0.0
24/02:30am 21.9 24.6 17.7 77 2.6 CALM 0 0 0 0 1015.2 1015.2 0.0
24/02:00am 21.5 24.0 17.3 77 2.6 CALM 0 0 0 0 1015.6 1015.6 0.0
24/01:30am 22.1 23.4 17.6 75 2.8 NNE 7 9 4 5 1015.7 1015.7 0.0
24/01:00am 21.3 22.4 17.2 77 2.5 NNE 7 9 4 5 1015.9 1015.9 0.0
24/12:30am 21.3 21.8 17.4 78 2.4 NNE 11 13 6 7 1016.0 1016.0 0.0
24/12:00am 20.7 22.9 17.4 81 2.0 N 2 7 1 4 1016.3 1016.3 0.0
 
Date/Time
EST
Temp
°C
App
Temp
°C
Dew
Point
°C
Rel
Hum
%
Delta-T
°C
Wind Press
QNH
hPa
Press
MSL
hPa
Rain since
9am
mm
Dir  Spd
km/h
Gust
km/h
Spd
kts
Gust
kts
23/11:30pm 20.8 22.4 17.9 83 1.8 N 6 7 3 4 1016.4 1016.4 0.0
23/11:00pm 20.5 21.7 17.4 82 1.9 N 7 9 4 5 1016.6 1016.6 0.0
23/10:30pm 20.5 22.0 17.6 83 1.8 NE 6 9 3 5 1016.8 1016.8 0.0
23/10:00pm 20.6 22.0 17.7 83 1.8 N 7 9 4 5 1016.7 1016.7 0.0
23/09:30pm 21.8 23.1 17.6 77 2.6 ENE 7 9 4 5 1016.8 1016.8 0.0
23/09:00pm 22.1 23.1 17.7 76 2.7 NE 9 13 5 7 1016.7 1016.7 0.0
23/08:30pm 23.3 23.1 17.7 71 3.5 NE 15 20 8 11 1016.5 1016.5 0.0
23/08:00pm 23.3 23.3 18.0 72 3.3 NE 15 17 8 9 1016.2 1016.2 0.0
23/07:30pm 23.5 23.4 17.9 71 3.5 NE 15 20 8 11 1016.0 1016.0 0.0
23/07:00pm 23.7 23.2 17.8 69 3.7 NE 17 20 9 11 1015.7 1015.7 0.0
23/06:30pm 23.9 23.0 17.8 68 3.8 ENE 19 24 10 13 1015.5 1015.5 0.0
23/06:00pm 24.3 23.1 17.6 66 4.2 NE 20 26 11 14 1015.2 1015.2 0.0
23/05:30pm 24.9 23.6 18.1 66 4.3 ENE 22 30 12 16 1015.0 1015.0 0.0
23/05:00pm 25.3 23.2 18.0 64 4.6 NE 26 30 14 16 1014.8 1014.8 0.0
23/04:30pm 26.0 23.4 17.7 60 5.2 ENE 28 33 15 18 1014.7 1014.7 0.0
23/04:00pm 27.0 24.6 18.2 58 5.6 NE 28 33 15 18 1014.7 1014.7 0.0
23/03:30pm 26.9 24.7 17.9 57 5.7 ENE 26 33 14 18 1014.7 1014.7 0.0
23/03:00pm 27.0 24.4 17.8 57 5.8 ENE 28 33 15 18 1014.8 1014.8 0.0
23/02:30pm 27.0 25.2 17.8 57 5.8 ENE 24 32 13 17 1015.2 1015.2 0.0
23/02:00pm 27.1 25.5 17.4 55 6.1 ENE 22 32 12 17 1015.3 1015.3 0.0
23/01:30pm 27.7 26.1 17.5 53 6.4 ENE 22 32 12 17 1015.7 1015.7 0.0
23/01:00pm 27.0 25.5 17.8 57 5.8 ENE 22 30 12 16 1016.0 1016.0 0.0
23/12:30pm 28.0 27.2 17.0 51 6.9 NE 17 26 9 14 1016.3 1016.3 0.0
23/12:00pm 27.7 26.9 17.2 52 6.6 ENE 17 26 9 14 1016.8 1016.8 0.0
23/11:30am 27.2 26.8 17.1 54 6.3 ENE 15 24 8 13 1017.3 1017.3 0.0
23/11:00am 27.2 26.3 16.9 53 6.4 NE 17 24 9 13 1017.8 1017.8 0.0
23/10:30am 27.0 25.8 17.0 54 6.2 ENE 19 26 10 14 1018.2 1018.2 0.0
23/10:00am 26.6 25.9 18.6 61 5.1 ENE 20 26 11 14 1018.3 1018.3 0.0
23/09:30am 26.4 25.9 18.7 62 4.9 NE 19 26 10 14 1018.5 1018.5 0.0
23/09:00am 26.2 25.6 18.5 62 4.9 ENE 19 26 10 14 1018.4 1018.4 0.0
23/08:30am 25.7 25.5 18.6 65 4.5 NE 17 24 9 13 1018.2 1018.2 0.0
23/08:00am 25.7 25.9 18.6 65 4.5 ENE 15 19 8 10 1018.0 1018.0 0.0
23/07:30am 23.9 25.3 19.5 76 2.8 NE 11 13 6 7 1017.7 1017.7 0.0
23/07:00am 22.3 24.0 19.3 83 1.9 NE 9 11 5 6 1017.2 1017.2 0.0
23/06:30am 21.4 22.9 18.9 86 1.6 NE 9 9 5 5 1016.8 1016.8 0.0
23/06:00am 21.1 22.1 18.7 86 1.5 NE 11 13 6 7 1016.6 1016.6 0.0
23/05:30am 21.4 22.3 19.2 87 1.4 NE 13 15 7 8 1016.3 1016.3 0.0
23/05:00am 22.0 23.8 19.5 86 1.6 NE 9 11 5 6 1016.0 1016.0 0.0
23/04:30am 21.2 23.1 19.0 87 1.4 NE 7 9 4 5 1015.8 1015.8 0.0
23/04:00am 20.6 21.1 18.3 87 1.4 NE 13 15 7 8 1015.4 1015.4 0.0
23/03:30am 20.8 22.7 18.9 89 1.2 NNE 7 9 4 5 1015.4 1015.4 0.0
23/03:00am 21.4 23.3 19.0 86 1.5 NNE 7 9 4 5 1015.6 1015.6 0.0
23/02:30am 22.0 23.7 19.3 85 1.7 NNE 9 11 5 6 1016.0 1016.0 0.0
23/02:00am 21.7 23.0 19.2 86 1.6 NNE 11 13 6 7 1016.3 1016.3 0.0
23/01:30am 22.2 23.2 19.5 85 1.7 NE 13 17 7 9 1016.5 1016.5 0.0
23/01:00am 22.7 23.9 19.9 84 1.8 NNE 13 15 7 8 1016.7 1016.7 0.0
23/12:30am 22.7 23.4 19.7 83 1.9 NNE 15 17 8 9 1016.9 1016.9 0.0
23/12:00am 23.0 23.8 19.9 83 2.0 NNE 15 19 8 10 1017.2 1017.2 0.0
 
Date/Time
EST
Temp
°C
App
Temp
°C
Dew
Point
°C
Rel
Hum
%
Delta-T
°C
Wind Press
QNH
hPa
Press
MSL
hPa
Rain since
9am
mm
Dir  Spd
km/h
Gust
km/h
Spd
kts
Gust
kts
22/11:30pm 23.5 25.3 20.3 82 2.1 NNE 11 19 6 10 1017.4 1017.4 0.0
22/11:00pm 23.1 24.7 20.0 83 2.0 NNE 11 15 6 8 1017.6 1017.6 0.0
22/10:30pm 22.5 24.0 19.7 84 1.8 NNE 11 13 6 7 1017.6 1017.6 0.0
22/10:00pm 23.0 24.6 19.9 83 2.0 NNE 11 15 6 8 1017.5 1017.5 0.0
22/09:30pm 23.2 24.4 19.8 81 2.2 NE 13 15 7 8 1017.3 1017.3 0.0
22/09:00pm 23.4 24.6 20.0 81 2.2 NE 13 17 7 9 1017.1 1017.1 0.0
22/08:30pm 23.7 24.9 20.0 80 2.4 NE 13 17 7 9 1017.0 1017.0 0.0
22/08:00pm 23.7 24.5 19.8 79 2.5 NE 15 17 8 9 1016.7 1016.7 0.0
22/07:30pm 24.0 24.4 19.8 77 2.7 NE 17 19 9 10 1016.4 1016.4 0.0
22/07:00pm 24.1 24.4 19.6 76 2.9 NE 17 22 9 12 1016.1 1016.1 0.0
22/06:30pm 24.4 24.1 19.6 74 3.1 ENE 20 26 11 14 1015.8 1015.8 0.0
22/06:00pm 24.8 24.7 20.0 74 3.1 ENE 20 24 11 13 1015.5 1015.5 0.0
22/05:30pm 25.6 25.6 19.7 70 3.8 ENE 19 24 10 13 1015.3 1015.3 0.0
22/05:00pm 26.4 26.2 19.8 67 4.3 ENE 20 28 11 15 1015.1 1015.1 0.0
22/04:30pm 26.5 26.0 19.2 64 4.7 NE 20 28 11 15 1014.9 1014.9 0.0
22/04:00pm 26.7 26.2 19.9 66 4.4 NE 22 30 12 16 1014.6 1014.6 0.0
22/03:30pm 27.0 26.6 18.0 58 5.7 NE 17 24 9 13 1014.7 1014.7 0.0
22/03:00pm 27.3 25.7 19.1 61 5.3 NNE 26 33 14 18 1014.6 1014.6 0.0
22/02:30pm 27.8 26.7 17.8 54 6.3 N 20 28 11 15 1014.8 1014.8 0.0

Other Formats:

Comma delimited format used in spreadsheet applications
http://www.bom.gov.au/fwo/IDQ60801/IDQ60801.94294.axf

JavaScript Object Notation format (JSON) in row-major order
http://www.bom.gov.au/fwo/IDQ60801/IDQ60801.94294.json